createdAt,value
2017-10-10T00:01:08.516Z,12.20
2017-10-10T00:03:34.919Z,11.90
2017-10-10T00:06:02.079Z,11.60
2017-10-10T00:08:29.438Z,11.70
2017-10-10T00:10:56.584Z,11.60
2017-10-10T00:13:23.728Z,11.60
2017-10-10T00:15:50.891Z,11.70
2017-10-10T00:18:17.299Z,11.70
2017-10-10T00:20:43.718Z,11.80
2017-10-10T00:23:10.144Z,12.10
2017-10-10T00:25:36.536Z,12.10
2017-10-10T00:28:02.943Z,11.90
2017-10-10T00:30:30.171Z,11.90
2017-10-10T00:32:56.580Z,11.90
2017-10-10T00:35:23.754Z,12.10
2017-10-10T00:37:50.187Z,12.10
2017-10-10T00:40:16.723Z,12.10
2017-10-10T00:42:43.136Z,11.90
2017-10-10T00:45:10.289Z,12.00
2017-10-10T00:47:36.868Z,12.00
2017-10-10T00:50:03.301Z,12.00
2017-10-10T00:52:30.467Z,12.20
2017-10-10T00:54:57.054Z,12.20
2017-10-10T00:57:23.500Z,12.20
2017-10-10T00:59:49.940Z,12.30
2017-10-10T01:02:16.372Z,12.30
2017-10-10T01:04:42.840Z,12.30
2017-10-10T01:07:09.226Z,12.30
2017-10-10T01:09:35.771Z,12.40
2017-10-10T01:12:02.172Z,12.40
2017-10-10T01:14:28.599Z,12.40
2017-10-10T01:16:55.146Z,12.30
2017-10-10T01:19:21.599Z,12.30
2017-10-10T01:21:48.022Z,12.30
2017-10-10T01:24:14.520Z,12.30
2017-10-10T01:26:40.952Z,12.20
2017-10-10T01:29:07.398Z,12.30
2017-10-10T01:31:33.865Z,12.30
2017-10-10T01:34:00.292Z,12.30
2017-10-10T01:36:26.751Z,12.30
2017-10-10T01:38:54.092Z,12.20
2017-10-10T01:41:20.543Z,12.20
2017-10-10T01:43:47.748Z,12.20
2017-10-10T01:46:14.183Z,12.20
2017-10-10T01:48:40.616Z,12.20
2017-10-10T01:51:07.031Z,12.30
2017-10-10T01:53:33.588Z,12.30
2017-10-10T01:55:59.980Z,12.00
2017-10-10T01:58:26.390Z,12.00
2017-10-10T02:00:53.563Z,12.10
2017-10-10T02:03:20.063Z,12.10
2017-10-10T02:05:46.503Z,12.10
2017-10-10T02:08:12.888Z,11.90
2017-10-10T02:10:39.312Z,11.70
2017-10-10T02:13:05.731Z,11.80
2017-10-10T02:15:32.120Z,11.90
2017-10-10T02:17:58.537Z,12.00
2017-10-10T02:20:25.088Z,12.00
2017-10-10T02:22:51.491Z,12.10
2017-10-10T02:25:17.898Z,12.00
2017-10-10T02:27:44.367Z,12.10
2017-10-10T02:30:10.768Z,12.10
2017-10-10T02:32:37.441Z,12.20
2017-10-10T02:35:03.840Z,12.10
2017-10-10T02:37:30.337Z,12.10
2017-10-10T02:39:57.528Z,12.00
2017-10-10T02:42:23.997Z,12.10
2017-10-10T02:44:50.633Z,12.00
2017-10-10T02:47:18.584Z,12.10
2017-10-10T02:49:45.031Z,12.10
2017-10-10T02:52:11.476Z,12.10
2017-10-10T02:54:37.900Z,12.20
2017-10-10T02:57:04.295Z,12.10
2017-10-10T02:59:30.753Z,12.10
2017-10-10T03:01:57.305Z,11.80
2017-10-10T03:04:23.737Z,11.70
2017-10-10T03:06:50.162Z,11.80
2017-10-10T03:09:16.684Z,11.80
2017-10-10T03:11:43.075Z,11.90
2017-10-10T03:14:10.219Z,12.00
2017-10-10T03:16:37.376Z,12.10
2017-10-10T03:19:04.519Z,12.10
2017-10-10T03:21:31.767Z,12.10
2017-10-10T03:23:58.917Z,12.00
2017-10-10T03:26:26.164Z,12.00
2017-10-10T03:28:52.604Z,11.90
2017-10-10T03:31:19.740Z,11.90
2017-10-10T03:33:46.151Z,11.90
2017-10-10T03:36:12.544Z,12.00
2017-10-10T03:38:38.960Z,12.10
2017-10-10T03:41:06.228Z,12.10
2017-10-10T03:43:32.660Z,12.10
2017-10-10T03:45:59.059Z,12.10
2017-10-10T03:48:25.575Z,12.10
2017-10-10T03:50:51.989Z,12.10
2017-10-10T03:53:18.398Z,12.00
2017-10-10T03:55:44.819Z,12.00
2017-10-10T03:58:11.252Z,12.10
2017-10-10T04:00:37.662Z,12.00
2017-10-10T04:03:04.080Z,11.90
2017-10-10T04:05:30.613Z,11.90
2017-10-10T04:07:57.000Z,12.00
2017-10-10T04:10:23.423Z,11.90
2017-10-10T04:12:49.848Z,11.90
2017-10-10T04:15:16.252Z,11.90
2017-10-10T04:17:42.677Z,11.90
2017-10-10T04:20:09.084Z,12.00
2017-10-10T04:22:35.505Z,11.90
2017-10-10T04:25:02.072Z,11.90
2017-10-10T04:27:28.524Z,11.90
2017-10-10T04:29:56.183Z,11.60
2017-10-10T04:32:22.628Z,11.60
2017-10-10T04:34:49.795Z,11.50
2017-10-10T04:37:16.187Z,11.50
2017-10-10T04:39:42.623Z,11.60
2017-10-10T04:42:09.072Z,11.80
2017-10-10T04:44:36.233Z,11.70
2017-10-10T04:47:03.399Z,11.60
2017-10-10T04:49:29.812Z,11.60
2017-10-10T04:51:56.963Z,11.70
2017-10-10T04:54:24.136Z,11.70
2017-10-10T04:56:50.576Z,11.70
2017-10-10T04:59:17.018Z,11.50
2017-10-10T05:01:43.450Z,11.60
2017-10-10T05:04:09.863Z,11.30
2017-10-10T05:06:36.248Z,11.20
2017-10-10T05:09:02.889Z,11.30
2017-10-10T05:11:29.275Z,11.30
2017-10-10T05:13:55.673Z,11.30
2017-10-10T05:16:22.868Z,11.30
2017-10-10T05:18:49.307Z,11.30
2017-10-10T05:21:15.759Z,11.20
2017-10-10T05:23:42.192Z,10.90
2017-10-10T05:26:08.602Z,10.90
2017-10-10T05:28:35.041Z,11.10
2017-10-10T05:31:01.448Z,11.20
2017-10-10T05:33:28.180Z,11.20
2017-10-10T05:35:54.571Z,11.30
2017-10-10T05:38:20.975Z,11.20
2017-10-10T05:40:47.407Z,11.30
2017-10-10T05:43:13.851Z,11.30
2017-10-10T05:45:40.243Z,11.20
2017-10-10T05:48:06.760Z,11.20
2017-10-10T05:50:33.167Z,11.20
2017-10-10T05:52:59.560Z,11.30
2017-10-10T05:55:25.979Z,11.30
2017-10-10T05:57:52.381Z,11.30
2017-10-10T06:00:18.796Z,11.30
2017-10-10T06:02:45.230Z,11.30
2017-10-10T06:05:11.624Z,11.30
2017-10-10T06:07:38.016Z,11.30
2017-10-10T06:10:04.457Z,11.40
2017-10-10T06:12:31.632Z,11.40
2017-10-10T06:14:58.016Z,11.40
2017-10-10T06:17:24.420Z,11.40
2017-10-10T06:19:50.827Z,11.40
2017-10-10T06:22:17.218Z,11.50
2017-10-10T06:24:43.639Z,11.60
2017-10-10T06:27:10.065Z,11.60
2017-10-10T06:29:36.476Z,11.60
2017-10-10T06:32:03.016Z,11.60
2017-10-10T06:34:29.416Z,11.70
2017-10-10T06:36:56.561Z,11.70
2017-10-10T06:39:23.706Z,11.70
2017-10-10T06:41:50.867Z,11.80
2017-10-10T06:44:17.311Z,11.80
2017-10-10T06:46:43.716Z,11.80
2017-10-10T06:49:10.868Z,11.80
2017-10-10T06:51:38.074Z,12.00
2017-10-10T06:54:04.536Z,12.00
2017-10-10T06:56:30.953Z,12.10
2017-10-10T06:58:57.367Z,12.10
2017-10-10T07:01:23.773Z,12.10
2017-10-10T07:03:50.219Z,12.00
2017-10-10T07:06:16.639Z,12.10
2017-10-10T07:08:43.074Z,12.30
2017-10-10T07:11:09.471Z,12.40
2017-10-10T07:13:36.064Z,12.50
2017-10-10T07:16:02.519Z,12.50
2017-10-10T07:18:28.899Z,12.50
2017-10-10T07:20:55.299Z,12.60
2017-10-10T07:23:21.935Z,12.70
2017-10-10T07:25:48.330Z,12.70
2017-10-10T07:28:14.771Z,12.70
2017-10-10T07:30:41.195Z,12.80
2017-10-10T07:33:07.719Z,12.90
2017-10-10T07:35:34.129Z,13.00
2017-10-10T07:38:01.255Z,13.10
2017-10-10T07:40:27.676Z,13.10
2017-10-10T07:42:54.100Z,13.20
2017-10-10T07:45:21.267Z,13.40
2017-10-10T07:47:47.686Z,13.40
2017-10-10T07:50:14.063Z,13.40
2017-10-10T07:52:40.512Z,13.50
2017-10-10T07:55:06.940Z,13.60
2017-10-10T07:57:33.343Z,13.60
2017-10-10T07:59:59.727Z,13.70
2017-10-10T08:02:26.195Z,13.80
2017-10-10T08:04:52.613Z,13.80
2017-10-10T08:07:19.027Z,13.70
2017-10-10T08:09:45.423Z,13.70
2017-10-10T08:12:12.640Z,13.80
2017-10-10T08:14:39.046Z,13.80
2017-10-10T08:17:05.460Z,13.90
2017-10-10T08:19:31.909Z,14.00
2017-10-10T08:21:58.336Z,14.10
2017-10-10T08:24:24.743Z,14.20
2017-10-10T08:26:51.139Z,14.20
2017-10-10T08:29:17.544Z,14.20
2017-10-10T08:31:44.695Z,14.30
2017-10-10T08:34:11.148Z,14.30
2017-10-10T08:36:37.559Z,14.40
2017-10-10T08:39:04.709Z,14.10
2017-10-10T08:41:31.079Z,14.00
2017-10-10T08:43:57.619Z,14.10
2017-10-10T08:46:24.759Z,14.30
2017-10-10T08:48:51.163Z,14.30
2017-10-10T08:51:17.574Z,14.40
2017-10-10T08:53:43.959Z,14.40
2017-10-10T08:56:10.360Z,14.40
2017-10-10T08:58:36.744Z,14.50
2017-10-10T09:01:04.016Z,14.30
2017-10-10T09:03:30.391Z,14.30
2017-10-10T09:05:56.892Z,14.40
2017-10-10T09:08:23.316Z,14.50
2017-10-10T09:10:49.707Z,14.50
2017-10-10T09:13:16.098Z,14.60
2017-10-10T09:15:42.619Z,14.50
2017-10-10T09:18:09.000Z,14.30
2017-10-10T09:20:35.399Z,14.30
2017-10-10T09:23:01.867Z,14.50
2017-10-10T09:25:28.269Z,14.60
2017-10-10T09:27:54.687Z,14.60
2017-10-10T09:30:21.253Z,14.60
2017-10-10T09:32:47.640Z,14.60
2017-10-10T09:35:14.054Z,14.80
2017-10-10T09:37:40.523Z,14.80
2017-10-10T09:40:06.950Z,14.90
2017-10-10T09:42:33.503Z,15.00
2017-10-10T09:44:59.950Z,15.00
2017-10-10T09:47:26.351Z,15.20
2017-10-10T09:49:52.805Z,15.20
2017-10-10T09:52:19.215Z,15.30
2017-10-10T09:54:45.608Z,15.60
2017-10-10T09:57:11.996Z,15.80
2017-10-10T09:59:38.435Z,16.10
2017-10-10T10:02:06.405Z,16.40
2017-10-10T10:04:33.126Z,16.50
2017-10-10T10:06:59.518Z,16.60
2017-10-10T10:09:26.723Z,17.00
2017-10-10T10:11:53.128Z,16.90
2017-10-10T10:14:19.538Z,17.20
2017-10-10T10:16:46.659Z,17.40
2017-10-10T10:19:13.190Z,17.40
2017-10-10T10:21:39.587Z,17.50
2017-10-10T10:24:07.059Z,17.70
2017-10-10T10:26:33.668Z,17.70
2017-10-10T10:29:00.063Z,17.70
2017-10-10T10:31:26.492Z,17.70
2017-10-10T10:33:52.903Z,17.80
2017-10-10T10:36:19.285Z,18.00
2017-10-10T10:38:46.472Z,18.70
2017-10-10T10:41:12.836Z,18.70
2017-10-10T10:43:39.208Z,18.90
2017-10-10T10:46:06.352Z,19.20
2017-10-10T10:48:33.501Z,19.40
2017-10-10T10:50:59.899Z,19.40
2017-10-10T10:53:26.287Z,19.30
2017-10-10T10:55:52.800Z,19.10
2017-10-10T10:58:19.936Z,18.80
2017-10-10T11:00:47.067Z,19.10
2017-10-10T11:03:13.571Z,19.00
2017-10-10T11:05:39.947Z,19.20
2017-10-10T11:08:06.330Z,19.50
2017-10-10T11:10:32.937Z,19.80
2017-10-10T11:12:59.329Z,19.90
2017-10-10T11:15:25.752Z,19.90
2017-10-10T11:17:52.163Z,19.90
2017-10-10T11:20:19.312Z,20.30
2017-10-10T11:22:45.739Z,20.20
2017-10-10T11:25:12.144Z,20.40
2017-10-10T11:27:39.287Z,20.80
2017-10-10T11:30:06.407Z,21.00
2017-10-10T11:32:32.937Z,21.00
2017-10-10T11:35:07.122Z,21.20
2017-10-10T11:37:33.535Z,21.10
2017-10-10T11:39:59.974Z,21.30
2017-10-10T11:42:26.400Z,21.40
2017-10-10T11:44:52.831Z,21.70
2017-10-10T11:47:19.230Z,21.70
2017-10-10T11:49:45.644Z,21.70
2017-10-10T11:52:12.020Z,21.90
2017-10-10T11:54:39.191Z,22.50
2017-10-10T11:57:05.571Z,22.50
2017-10-10T11:59:31.999Z,22.60
2017-10-10T12:01:58.394Z,22.80
2017-10-10T12:04:24.992Z,22.80
2017-10-10T12:06:51.539Z,22.40
2017-10-10T12:09:18.695Z,22.20
2017-10-10T12:11:45.803Z,22.50
2017-10-10T12:14:12.229Z,22.40
2017-10-10T12:16:38.613Z,22.20
2017-10-10T12:19:05.027Z,22.40
2017-10-10T12:21:33.562Z,22.00
2017-10-10T12:24:01.204Z,21.80
2017-10-10T12:26:27.716Z,21.80
2017-10-10T12:28:54.829Z,21.70
2017-10-10T12:31:21.400Z,21.90
2017-10-10T12:33:47.897Z,21.90
2017-10-10T12:36:14.344Z,22.20
2017-10-10T12:38:40.726Z,22.00
2017-10-10T12:41:07.143Z,21.80
2017-10-10T12:43:34.264Z,21.40
2017-10-10T12:46:00.678Z,21.40
2017-10-10T12:48:27.108Z,21.20
2017-10-10T12:50:53.508Z,21.20
2017-10-10T12:53:19.943Z,21.20
2017-10-10T12:55:46.351Z,21.30
2017-10-10T12:58:12.761Z,21.20
2017-10-10T13:00:39.287Z,21.30
2017-10-10T13:03:05.709Z,21.50
2017-10-10T13:05:32.108Z,21.60
2017-10-10T13:07:58.507Z,21.60
2017-10-10T13:10:25.635Z,21.60
2017-10-10T13:12:52.075Z,21.60
2017-10-10T13:15:18.491Z,21.80
2017-10-10T13:17:45.076Z,21.60
2017-10-10T13:20:11.480Z,21.40
2017-10-10T13:22:37.868Z,21.50
2017-10-10T13:25:04.291Z,21.40
2017-10-10T13:27:30.904Z,21.30
2017-10-10T13:29:58.091Z,21.60
2017-10-10T13:32:24.460Z,21.60
2017-10-10T13:34:50.907Z,21.50
2017-10-10T13:37:18.072Z,21.60
2017-10-10T13:39:44.503Z,21.60
2017-10-10T13:42:10.943Z,21.40
2017-10-10T13:44:37.385Z,21.30
2017-10-10T13:47:03.850Z,21.10
2017-10-10T13:49:30.236Z,21.10
2017-10-10T13:51:56.679Z,21.20
2017-10-10T13:54:23.103Z,20.90
2017-10-10T13:56:49.539Z,20.70
2017-10-10T13:59:16.007Z,20.70
2017-10-10T14:01:42.460Z,20.50
2017-10-10T14:04:09.016Z,20.50
2017-10-10T14:06:36.178Z,20.30
2017-10-10T14:09:03.372Z,20.30
2017-10-10T14:11:29.938Z,20.30
2017-10-10T14:13:56.342Z,20.30
2017-10-10T14:16:22.746Z,20.00
2017-10-10T14:18:49.211Z,19.90
2017-10-10T14:21:15.657Z,19.80
2017-10-10T14:23:42.059Z,19.80
2017-10-10T14:26:08.520Z,19.70
2017-10-10T14:28:34.898Z,19.50
2017-10-10T14:31:02.175Z,19.40
2017-10-10T14:33:28.602Z,19.30
2017-10-10T14:35:55.031Z,19.30
2017-10-10T14:38:21.424Z,19.20
2017-10-10T14:40:47.836Z,19.10
2017-10-10T14:43:14.259Z,19.00
2017-10-10T14:45:40.699Z,19.00
2017-10-10T14:48:07.136Z,19.00
2017-10-10T14:50:33.507Z,19.00
2017-10-10T14:53:00.652Z,18.80
2017-10-10T14:55:27.804Z,19.00
2017-10-10T14:57:55.148Z,18.90
2017-10-10T15:00:22.209Z,18.90
2017-10-10T15:02:48.711Z,18.80
2017-10-10T15:05:15.083Z,18.70
2017-10-10T15:07:41.516Z,18.70
2017-10-10T15:10:07.925Z,18.60
2017-10-10T15:12:34.428Z,18.60
2017-10-10T15:15:01.162Z,18.70
2017-10-10T15:17:27.551Z,18.60
2017-10-10T15:19:54.698Z,18.50
2017-10-10T15:22:21.052Z,18.40
2017-10-10T15:24:47.587Z,18.60
2017-10-10T15:27:14.740Z,18.50
2017-10-10T15:29:42.103Z,18.40
2017-10-10T15:32:08.539Z,18.40
2017-10-10T15:34:35.685Z,18.40
2017-10-10T15:37:02.839Z,18.40
2017-10-10T15:39:29.990Z,18.30
2017-10-10T15:41:57.167Z,18.10
2017-10-10T15:44:23.674Z,18.10
2017-10-10T15:46:50.060Z,18.10
2017-10-10T15:49:16.467Z,18.10
2017-10-10T15:51:42.947Z,18.10
2017-10-10T15:54:09.561Z,18.00
2017-10-10T15:56:35.967Z,17.90
2017-10-10T15:59:02.394Z,17.90
2017-10-10T16:01:28.776Z,17.80
2017-10-10T16:03:55.164Z,17.80
2017-10-10T16:06:21.576Z,17.70
2017-10-10T16:08:47.970Z,17.60
2017-10-10T16:11:14.392Z,17.60
2017-10-10T16:13:40.807Z,17.50
2017-10-10T16:16:07.243Z,17.50
2017-10-10T16:18:33.635Z,17.50
2017-10-10T16:21:00.892Z,17.40
2017-10-10T16:23:27.278Z,17.40
2017-10-10T16:25:53.644Z,17.30
2017-10-10T16:28:20.801Z,17.20
2017-10-10T16:30:47.235Z,17.20
2017-10-10T16:33:13.643Z,17.20
2017-10-10T16:35:40.031Z,17.10
2017-10-10T16:38:06.481Z,17.10
2017-10-10T16:40:32.928Z,17.10
2017-10-10T16:42:59.357Z,17.00
2017-10-10T16:45:25.800Z,16.90
2017-10-10T16:47:52.211Z,16.90
2017-10-10T16:50:19.371Z,16.90
2017-10-10T16:52:45.887Z,16.80
2017-10-10T16:55:12.290Z,16.70
2017-10-10T16:57:38.848Z,16.50
2017-10-10T17:00:05.331Z,16.60
2017-10-10T17:02:32.447Z,16.50
2017-10-10T17:05:00.015Z,16.50
2017-10-10T17:07:26.415Z,16.40
2017-10-10T17:09:52.775Z,16.40
2017-10-10T17:12:19.389Z,16.40
2017-10-10T17:14:45.900Z,16.30
2017-10-10T17:17:12.351Z,16.20
2017-10-10T17:19:39.505Z,16.10
2017-10-10T17:22:05.945Z,16.10
2017-10-10T17:24:32.331Z,16.10
2017-10-10T17:26:59.623Z,16.30
2017-10-10T17:29:26.013Z,16.20
2017-10-10T17:31:53.203Z,16.20
2017-10-10T17:34:19.632Z,16.20
2017-10-10T17:36:46.068Z,16.20
2017-10-10T17:39:12.509Z,16.20
2017-10-10T17:41:38.947Z,16.20
2017-10-10T17:44:05.340Z,16.10
2017-10-10T17:46:32.548Z,16.00
2017-10-10T17:48:58.921Z,16.00
2017-10-10T17:51:26.063Z,16.00
2017-10-10T17:53:53.220Z,15.90
2017-10-10T17:56:20.351Z,15.90
2017-10-10T17:58:46.974Z,15.90
2017-10-10T18:01:14.244Z,15.90
2017-10-10T18:03:41.438Z,16.00
2017-10-10T18:06:07.830Z,16.00
2017-10-10T18:08:34.974Z,16.00
2017-10-10T18:11:01.387Z,16.00
2017-10-10T18:13:27.805Z,16.00
2017-10-10T18:15:55.567Z,16.00
2017-10-10T18:18:22.242Z,15.90
2017-10-10T18:20:48.889Z,15.70
2017-10-10T18:23:30.404Z,15.60
2017-10-10T18:25:57.472Z,15.60
2017-10-10T18:28:24.281Z,15.60
2017-10-10T18:30:52.419Z,15.60
2017-10-10T18:33:20.477Z,15.60
2017-10-10T18:35:53.835Z,15.50
2017-10-10T18:41:12.904Z,15.50
2017-10-10T18:43:41.309Z,15.50
2017-10-10T18:46:08.704Z,15.30
2017-10-10T19:30:46.768Z,14.90
2017-10-10T19:33:17.003Z,14.90
2017-10-10T19:35:55.444Z,14.90
2017-10-10T19:38:33.177Z,14.90
2017-10-10T19:41:01.724Z,15.00
2017-10-10T19:43:30.405Z,14.90
2017-10-10T19:45:59.012Z,15.00
2017-10-10T19:48:35.639Z,15.00
2017-10-10T19:51:12.089Z,15.10
2017-10-10T19:53:39.669Z,15.10
2017-10-10T19:56:06.101Z,15.10
2017-10-10T19:58:35.609Z,15.10
2017-10-10T20:01:02.331Z,14.90
2017-10-10T20:03:28.860Z,14.90
2017-10-10T20:05:59.251Z,15.00
2017-10-10T20:08:28.959Z,15.00
2017-10-10T20:11:00.446Z,14.90
2017-10-10T20:13:29.868Z,14.90
2017-10-10T20:15:57.820Z,14.80
2017-10-10T20:18:25.334Z,14.80
2017-10-10T20:20:51.860Z,14.70
2017-10-10T20:23:19.810Z,14.70
2017-10-10T20:25:46.509Z,14.70
2017-10-10T20:28:13.860Z,14.50
2017-10-10T20:30:41.910Z,14.40
2017-10-10T20:33:09.268Z,14.40
2017-10-10T20:38:28.055Z,14.40
2017-10-10T20:40:56.122Z,14.20
2017-10-10T20:43:22.753Z,14.30
2017-10-10T20:45:50.865Z,14.10
2017-10-10T20:48:18.551Z,14.00
2017-10-10T20:50:45.184Z,13.90
2017-10-10T20:53:11.728Z,14.00
2017-10-10T20:55:39.068Z,14.00
2017-10-10T20:58:06.320Z,14.00
2017-10-10T21:00:33.758Z,14.10
2017-10-10T21:03:00.260Z,14.10
2017-10-10T21:05:27.775Z,14.20
2017-10-10T21:07:55.207Z,14.20
2017-10-10T21:10:22.405Z,14.20
2017-10-10T21:12:48.945Z,14.20
2017-10-10T21:15:15.548Z,14.30
2017-10-10T21:17:42.327Z,14.30
2017-10-10T21:20:08.752Z,14.30
2017-10-10T21:22:38.118Z,14.30
2017-10-10T21:25:05.048Z,14.30
2017-10-10T21:27:32.739Z,14.40
2017-10-10T21:29:59.805Z,14.30
2017-10-10T21:32:27.808Z,14.00
2017-10-10T21:34:55.539Z,14.00
2017-10-10T21:37:22.739Z,13.90
2017-10-10T21:39:50.857Z,13.80
2017-10-10T21:42:17.401Z,13.80
2017-10-10T21:44:44.981Z,13.80
2017-10-10T21:47:12.440Z,14.00
2017-10-10T21:49:39.240Z,13.90
2017-10-10T21:52:07.456Z,14.00
2017-10-10T21:54:34.089Z,14.00
2017-10-10T21:57:00.608Z,14.00
2017-10-10T21:59:28.571Z,13.90
2017-10-10T22:01:56.633Z,13.90
2017-10-10T22:04:23.981Z,14.00
2017-10-10T22:06:51.297Z,14.10
2017-10-10T22:09:18.184Z,14.10
2017-10-10T22:11:44.683Z,14.10
2017-10-10T22:14:12.048Z,14.10
2017-10-10T22:16:38.764Z,13.80
2017-10-10T22:19:05.612Z,13.80
2017-10-10T22:21:32.256Z,13.70
2017-10-10T22:24:00.339Z,13.80
2017-10-10T22:26:29.060Z,13.80
2017-10-10T22:28:57.634Z,13.80
2017-10-10T22:31:24.192Z,13.80
2017-10-10T22:33:51.798Z,13.70
2017-10-10T22:36:18.234Z,13.80
2017-10-10T22:38:46.610Z,13.80
2017-10-10T22:41:15.041Z,13.80
2017-10-10T22:43:41.754Z,13.80
2017-10-10T22:46:08.886Z,13.80
2017-10-10T22:48:35.364Z,13.80
2017-10-10T22:51:02.729Z,13.70
2017-10-10T22:53:29.977Z,13.60
2017-10-10T22:55:56.785Z,13.60
2017-10-10T22:58:23.310Z,13.60
2017-10-10T23:00:50.611Z,13.60
2017-10-10T23:03:20.012Z,13.60
2017-10-10T23:05:48.069Z,13.50
2017-10-10T23:08:15.919Z,13.50
2017-10-10T23:10:43.396Z,13.40
2017-10-10T23:13:10.762Z,13.30
2017-10-10T23:15:38.288Z,13.30
2017-10-10T23:18:05.872Z,13.40
2017-10-10T23:20:34.467Z,13.40
2017-10-10T23:23:01.735Z,13.30
2017-10-10T23:25:29.427Z,13.30
2017-10-10T23:27:56.937Z,13.30
2017-10-10T23:30:23.892Z,13.20
2017-10-10T23:32:51.209Z,13.30
2017-10-10T23:35:17.796Z,13.30
2017-10-10T23:37:44.336Z,13.30
2017-10-10T23:40:10.744Z,13.30
2017-10-10T23:42:37.274Z,13.20
2017-10-10T23:45:04.407Z,13.30
2017-10-10T23:47:30.788Z,13.30
2017-10-10T23:49:57.206Z,13.30
2017-10-10T23:52:23.607Z,13.20
2017-10-10T23:54:50.795Z,12.80
2017-10-10T23:57:17.199Z,12.80
2017-10-10T23:59:45.156Z,13.00
